createdAt,value
2023-01-26T00:00:53.023Z,102049.91
2023-01-26T00:03:20.327Z,102041.81
2023-01-26T00:05:46.783Z,102048.66
2023-01-26T00:08:13.645Z,102045.91
2023-01-26T00:10:41.569Z,102036.28
2023-01-26T00:13:10.140Z,102039.34
2023-01-26T00:15:36.845Z,102036.41
2023-01-26T00:18:03.613Z,102029.19
2023-01-26T00:20:30.415Z,102030.81
2023-01-26T00:22:56.825Z,102018.16
2023-01-26T00:25:23.220Z,102023.09
2023-01-26T00:27:49.657Z,102015.13
2023-01-26T00:30:16.575Z,102012.09
2023-01-26T00:32:43.239Z,102011.44
2023-01-26T00:35:09.793Z,102001.16
2023-01-26T00:37:36.348Z,102005.72
2023-01-26T00:40:02.756Z,102005.31
2023-01-26T00:42:29.170Z,102000.50
2023-01-26T00:44:56.699Z,101997.44
2023-01-26T00:47:23.143Z,102004.31
2023-01-26T00:49:49.726Z,102007.06
2023-01-26T00:52:16.163Z,101998.47
2023-01-26T00:54:42.613Z,101990.41
2023-01-26T00:57:09.576Z,101996.22
2023-01-26T00:59:36.085Z,101994.78
2023-01-26T01:02:02.757Z,101989.56
2023-01-26T01:04:32.757Z,101986.81
2023-01-26T01:07:00.349Z,101981.00
2023-01-26T01:09:26.839Z,101979.31
2023-01-26T01:11:53.252Z,101981.41
2023-01-26T01:14:19.639Z,101980.38
2023-01-26T01:16:46.610Z,101977.13
2023-01-26T01:19:15.372Z,101972.69
2023-01-26T01:21:43.016Z,101968.56
2023-01-26T01:24:10.979Z,101965.06
2023-01-26T01:26:38.535Z,101967.06
2023-01-26T01:29:05.851Z,101966.31
2023-01-26T01:31:32.317Z,101972.78
2023-01-26T01:33:58.803Z,101973.72
2023-01-26T01:36:25.758Z,101965.34
2023-01-26T01:38:52.284Z,101959.78
2023-01-26T01:41:22.681Z,101971.91
2023-01-26T01:43:50.696Z,101957.66
2023-01-26T01:46:35.564Z,101959.66
2023-01-26T01:49:11.024Z,101956.63
2023-01-26T01:51:43.863Z,101949.00
2023-01-26T01:54:15.301Z,101954.91
2023-01-26T01:56:43.852Z,101953.94
2023-01-26T01:59:12.480Z,101947.47
2023-01-26T02:01:38.901Z,101944.78
2023-01-26T02:04:07.373Z,101938.53
2023-01-26T02:06:59.240Z,101938.94
2023-01-26T02:09:52.445Z,101938.66
2023-01-26T02:12:23.006Z,101935.50
2023-01-26T02:14:51.831Z,101924.25
2023-01-26T02:17:18.260Z,101926.09
2023-01-26T02:19:58.262Z,101920.59
2023-01-26T02:22:57.962Z,101926.84
2023-01-26T02:25:56.068Z,101918.03
2023-01-26T02:28:25.784Z,101917.16
2023-01-26T02:30:54.052Z,101906.69
2023-01-26T02:33:23.027Z,101909.47
2023-01-26T02:35:49.799Z,101897.38
2023-01-26T02:38:18.287Z,101902.03
2023-01-26T02:40:53.341Z,101902.44
2023-01-26T02:43:20.045Z,101894.88
2023-01-26T02:45:46.501Z,101899.47
2023-01-26T02:48:13.011Z,101892.81
2023-01-26T02:50:40.164Z,101891.59
2023-01-26T02:53:06.605Z,101883.31
2023-01-26T02:55:33.016Z,101879.66
2023-01-26T02:58:02.530Z,101880.84
2023-01-26T03:00:32.842Z,101883.31
2023-01-26T03:03:01.500Z,101883.88
2023-01-26T03:05:29.783Z,101884.66
2023-01-26T03:07:56.316Z,101882.53
2023-01-26T03:10:26.988Z,101883.16
2023-01-26T03:12:53.521Z,101885.53
2023-01-26T03:15:42.635Z,101882.41
2023-01-26T03:18:36.049Z,101882.00
2023-01-26T03:21:24.794Z,101884.16
2023-01-26T03:24:10.339Z,101880.84
2023-01-26T03:26:55.740Z,101876.09
2023-01-26T03:29:22.445Z,101879.88
2023-01-26T03:31:49.865Z,101876.78
2023-01-26T03:34:17.184Z,101872.38
2023-01-26T03:36:45.307Z,101861.81
2023-01-26T03:39:34.587Z,101862.38
2023-01-26T03:42:21.276Z,101872.69
2023-01-26T03:45:06.259Z,101867.22
2023-01-26T03:47:52.344Z,101870.00
2023-01-26T03:50:38.357Z,101871.25
2023-01-26T03:53:38.814Z,101872.69
2023-01-26T03:56:18.262Z,101871.78
2023-01-26T03:58:47.655Z,101873.03
2023-01-26T04:01:21.653Z,101864.09
2023-01-26T04:04:10.662Z,101869.44
2023-01-26T04:06:57.935Z,101864.38
2023-01-26T04:09:24.452Z,101864.66
2023-01-26T04:11:51.107Z,101859.81
2023-01-26T04:14:49.416Z,101864.09
2023-01-26T04:17:37.486Z,101863.47
2023-01-26T04:20:24.369Z,101854.19
2023-01-26T04:22:51.130Z,101851.34
2023-01-26T04:25:20.226Z,101848.41
2023-01-26T04:27:47.115Z,101853.91
2023-01-26T04:30:16.083Z,101846.50
2023-01-26T04:32:43.756Z,101843.00
2023-01-26T04:35:10.484Z,101855.22
2023-01-26T04:37:38.268Z,101845.91
2023-01-26T04:40:06.563Z,101851.16
2023-01-26T04:42:34.703Z,101845.59
2023-01-26T04:45:03.124Z,101845.63
2023-01-26T04:47:30.554Z,101834.91
2023-01-26T04:49:57.216Z,101839.56
2023-01-26T04:52:23.968Z,101838.50
2023-01-26T04:54:50.872Z,101845.34
2023-01-26T04:57:20.207Z,101839.22
2023-01-26T04:59:49.220Z,101835.56
2023-01-26T05:02:15.821Z,101834.94
2023-01-26T05:04:42.348Z,101829.25
2023-01-26T05:07:08.792Z,101827.16
2023-01-26T05:09:37.171Z,101830.28
2023-01-26T05:12:33.396Z,101828.59
2023-01-26T05:15:29.224Z,101823.47
2023-01-26T05:18:10.838Z,101824.59
2023-01-26T05:20:43.643Z,101818.50
2023-01-26T05:23:18.148Z,101820.38
2023-01-26T05:26:04.308Z,101825.28
2023-01-26T05:28:37.877Z,101833.25
2023-01-26T05:31:04.474Z,101828.44
2023-01-26T05:33:30.930Z,101828.13
2023-01-26T05:36:05.168Z,101822.69
2023-01-26T05:38:32.278Z,101816.41
2023-01-26T05:40:59.309Z,101823.47
2023-01-26T05:43:25.988Z,101828.03
2023-01-26T05:46:08.520Z,101825.66
2023-01-26T05:48:35.072Z,101829.06
2023-01-26T05:51:03.946Z,101827.13
2023-01-26T05:53:32.275Z,101837.88
2023-01-26T05:55:58.833Z,101841.00
2023-01-26T05:58:26.967Z,101846.03
2023-01-26T06:00:54.129Z,101849.41
2023-01-26T06:03:25.427Z,101840.97
2023-01-26T06:05:55.571Z,101852.66
2023-01-26T06:08:35.719Z,101843.44
2023-01-26T06:11:22.109Z,101849.41
2023-01-26T06:14:00.128Z,101850.19
2023-01-26T06:16:28.269Z,101851.03
2023-01-26T06:18:55.606Z,101840.19
2023-01-26T06:21:22.708Z,101844.78
2023-01-26T06:23:49.515Z,101844.84
2023-01-26T06:26:16.199Z,101837.44
2023-01-26T06:28:43.246Z,101849.06
2023-01-26T06:31:10.754Z,101847.53
2023-01-26T06:33:38.855Z,101844.56
2023-01-26T06:36:10.387Z,101848.16
2023-01-26T06:38:37.899Z,101851.50
2023-01-26T06:41:07.273Z,101842.88
2023-01-26T06:43:35.395Z,101843.66
2023-01-26T06:46:03.782Z,101847.75
2023-01-26T06:48:33.631Z,101850.13
2023-01-26T06:51:25.873Z,101849.91
2023-01-26T06:53:57.270Z,101853.53
2023-01-26T06:56:36.989Z,101866.91
2023-01-26T06:59:22.203Z,101855.53
2023-01-26T07:02:19.605Z,101849.41
2023-01-26T07:04:47.159Z,101841.66
2023-01-26T07:07:13.632Z,101847.25
2023-01-26T07:09:40.062Z,101841.47
2023-01-26T07:12:06.519Z,101835.84
2023-01-26T07:14:33.235Z,101836.16
2023-01-26T07:16:59.643Z,101836.91
2023-01-26T07:19:26.126Z,101838.91
2023-01-26T07:21:52.532Z,101848.97
2023-01-26T07:24:21.743Z,101840.91
2023-01-26T07:26:48.292Z,101844.41
2023-01-26T07:29:14.700Z,101844.31
2023-01-26T07:31:41.661Z,101845.16
2023-01-26T07:34:09.484Z,101849.53
2023-01-26T07:36:35.910Z,101860.28
2023-01-26T07:39:02.429Z,101857.81
2023-01-26T07:41:28.825Z,101846.91
2023-01-26T07:43:57.118Z,101853.91
2023-01-26T07:46:24.569Z,101853.97
2023-01-26T07:48:51.209Z,101857.59
2023-01-26T07:51:17.591Z,101856.75
2023-01-26T07:53:45.206Z,101861.50
2023-01-26T07:56:14.366Z,101862.06
2023-01-26T07:58:41.049Z,101858.94
2023-01-26T08:01:15.016Z,101865.19
2023-01-26T08:03:42.224Z,101868.72
2023-01-26T08:06:11.679Z,101866.06
2023-01-26T08:08:41.803Z,101867.41
2023-01-26T08:11:10.017Z,101876.50
2023-01-26T08:13:36.487Z,101876.13
2023-01-26T08:16:12.547Z,101864.16
2023-01-26T08:18:43.596Z,101865.41
2023-01-26T08:21:11.240Z,101867.38
2023-01-26T08:23:37.653Z,101871.94
2023-01-26T08:26:06.843Z,101881.16
2023-01-26T08:28:34.313Z,101879.81
2023-01-26T08:31:08.487Z,101886.19
2023-01-26T08:33:35.039Z,101886.75
2023-01-26T08:36:06.204Z,101880.78
2023-01-26T08:38:33.078Z,101869.19
2023-01-26T08:41:00.821Z,101880.31
2023-01-26T08:43:27.825Z,101874.50
2023-01-26T08:45:54.612Z,101866.16
2023-01-26T08:48:21.108Z,101866.16
2023-01-26T08:50:47.678Z,101871.28
2023-01-26T08:53:14.293Z,101871.84
2023-01-26T08:55:40.689Z,101866.63
2023-01-26T08:58:07.075Z,101855.81
2023-01-26T09:00:34.149Z,101860.28
2023-01-26T09:03:05.496Z,101864.84
2023-01-26T09:05:34.602Z,101871.16
2023-01-26T09:08:01.308Z,101866.28
2023-01-26T09:10:27.885Z,101874.41
2023-01-26T09:12:54.313Z,101868.91
2023-01-26T09:15:20.857Z,101877.56
2023-01-26T09:17:50.655Z,101881.63
2023-01-26T09:20:18.230Z,101879.34
2023-01-26T09:22:45.048Z,101884.38
2023-01-26T09:25:12.512Z,101885.91
2023-01-26T09:27:39.115Z,101878.69
2023-01-26T09:30:07.043Z,101877.84
2023-01-26T09:32:33.682Z,101874.91
2023-01-26T09:35:00.230Z,101872.03
2023-01-26T09:37:26.630Z,101874.63
2023-01-26T09:39:53.039Z,101884.88
2023-01-26T09:42:43.465Z,101885.63
2023-01-26T09:45:13.196Z,101876.50
2023-01-26T09:48:02.958Z,101875.56
2023-01-26T09:50:54.113Z,101878.31
2023-01-26T09:53:26.979Z,101884.94
2023-01-26T09:55:55.536Z,101887.69
2023-01-26T09:58:36.088Z,101880.97
2023-01-26T10:01:04.447Z,101881.31
2023-01-26T10:03:41.528Z,101874.78
2023-01-26T10:06:22.896Z,101869.06
2023-01-26T10:09:22.400Z,101879.16
2023-01-26T10:11:54.240Z,101881.72
2023-01-26T10:14:35.968Z,101884.38
2023-01-26T10:17:06.099Z,101875.16
2023-01-26T10:19:54.971Z,101871.19
2023-01-26T10:22:31.818Z,101865.47
2023-01-26T10:24:59.667Z,101861.94
2023-01-26T10:27:28.261Z,101848.56
2023-01-26T10:29:54.727Z,101852.84
2023-01-26T10:32:21.449Z,101838.50
2023-01-26T10:34:50.541Z,101837.16
2023-01-26T10:37:29.596Z,101831.09
2023-01-26T10:40:09.535Z,101828.91
2023-01-26T10:42:37.427Z,101819.50
2023-01-26T10:45:07.164Z,101803.72
2023-01-26T10:47:33.597Z,101801.75
2023-01-26T10:50:21.434Z,101807.69
2023-01-26T10:52:59.904Z,101808.53
2023-01-26T10:55:27.131Z,101805.25
2023-01-26T10:57:53.559Z,101806.38
2023-01-26T11:00:33.184Z,101802.66
2023-01-26T11:03:17.626Z,101800.97
2023-01-26T11:05:47.889Z,101803.09
2023-01-26T11:08:37.182Z,101811.25
2023-01-26T11:11:06.800Z,101802.19
2023-01-26T11:13:33.332Z,101802.69
2023-01-26T11:16:13.520Z,101804.00
2023-01-26T11:19:07.139Z,101795.91
2023-01-26T11:21:41.500Z,101794.06
2023-01-26T11:24:27.076Z,101794.94
2023-01-26T11:27:17.637Z,101790.84
2023-01-26T11:30:14.078Z,101796.84
2023-01-26T11:32:58.972Z,101790.94
2023-01-26T11:35:39.439Z,101788.56
2023-01-26T11:38:32.438Z,101788.63
2023-01-26T11:41:23.068Z,101784.56
2023-01-26T11:44:07.817Z,101782.69
2023-01-26T11:46:51.056Z,101778.97
2023-01-26T11:49:37.739Z,101779.91
2023-01-26T11:52:17.134Z,101774.13
2023-01-26T11:55:01.273Z,101776.50
2023-01-26T11:57:55.684Z,101770.72
2023-01-26T12:00:40.113Z,101760.47
2023-01-26T12:03:17.332Z,101750.44
2023-01-26T12:05:48.511Z,101752.09
2023-01-26T12:08:14.793Z,101752.09
2023-01-26T12:10:57.148Z,101746.19
2023-01-26T12:13:40.946Z,101738.56
2023-01-26T12:16:17.996Z,101733.19
2023-01-26T12:19:10.101Z,101737.25
2023-01-26T12:21:41.157Z,101735.25
2023-01-26T12:24:36.033Z,101735.25
2023-01-26T12:27:05.095Z,101723.34
2023-01-26T12:29:45.238Z,101731.59
2023-01-26T12:32:13.469Z,101727.44
2023-01-26T12:34:39.962Z,101725.78
2023-01-26T12:37:47.635Z,101727.03
2023-01-26T12:40:44.210Z,101715.59
2023-01-26T12:43:33.871Z,101723.81
2023-01-26T12:46:02.753Z,101718.63
2023-01-26T12:48:41.875Z,101715.59
2023-01-26T12:51:14.169Z,101705.25
2023-01-26T12:53:43.185Z,101708.81
2023-01-26T12:56:21.984Z,101710.84
2023-01-26T12:58:51.456Z,101708.31
2023-01-26T13:01:21.359Z,101713.66
2023-01-26T13:03:59.165Z,101708.41
2023-01-26T13:06:26.945Z,101715.47
2023-01-26T13:09:25.555Z,101716.88
2023-01-26T13:11:59.935Z,101714.84
2023-01-26T13:14:43.027Z,101720.66
2023-01-26T13:17:15.414Z,101712.47
2023-01-26T13:19:41.771Z,101713.66
2023-01-26T13:22:26.288Z,101719.56
2023-01-26T13:24:55.653Z,101723.03
2023-01-26T13:27:45.523Z,101720.84
2023-01-26T13:30:24.118Z,101724.59
2023-01-26T13:32:50.493Z,101734.75
2023-01-26T13:35:20.583Z,101740.94
2023-01-26T13:37:59.184Z,101731.16
2023-01-26T13:40:35.891Z,101741.59
2023-01-26T13:43:26.141Z,101740.13
2023-01-26T13:46:03.572Z,101741.47
2023-01-26T13:48:41.751Z,101745.72
2023-01-26T13:51:12.605Z,101745.00
2023-01-26T13:53:41.599Z,101741.88
2023-01-26T13:56:21.945Z,101755.31
2023-01-26T13:58:48.393Z,101757.44
2023-01-26T14:01:15.225Z,101747.88
2023-01-26T14:03:41.618Z,101749.84
2023-01-26T14:06:20.342Z,101754.97
2023-01-26T14:08:54.306Z,101753.72
2023-01-26T14:11:24.486Z,101745.72
2023-01-26T14:13:53.384Z,101748.66
2023-01-26T14:16:37.201Z,101747.63
2023-01-26T14:19:23.983Z,101744.41
2023-01-26T14:22:00.146Z,101752.88
2023-01-26T14:24:29.488Z,101751.81
2023-01-26T14:26:56.115Z,101754.19
2023-01-26T14:29:25.797Z,101752.69
2023-01-26T14:31:54.689Z,101743.91
2023-01-26T14:34:24.295Z,101751.94
2023-01-26T14:37:17.427Z,101749.84
2023-01-26T14:39:47.752Z,101757.00
2023-01-26T14:42:17.214Z,101753.19
2023-01-26T14:44:44.024Z,101757.91
2023-01-26T14:47:30.186Z,101755.63
2023-01-26T14:50:01.350Z,101750.94
2023-01-26T14:52:33.713Z,101746.84
2023-01-26T14:55:13.561Z,101740.88
2023-01-26T14:57:39.967Z,101747.03
2023-01-26T15:00:10.099Z,101748.47
2023-01-26T15:02:42.730Z,101740.94
2023-01-26T15:05:13.586Z,101742.84
2023-01-26T15:07:56.915Z,101742.00
2023-01-26T15:10:43.644Z,101755.75
2023-01-26T15:13:09.979Z,101755.03
2023-01-26T15:15:41.631Z,101755.16
2023-01-26T15:18:14.020Z,101763.44
2023-01-26T15:20:41.950Z,101759.25
2023-01-26T15:23:27.553Z,101759.72
2023-01-26T15:25:54.488Z,101759.81
2023-01-26T15:28:25.986Z,101766.28
2023-01-26T15:30:55.820Z,101760.00
2023-01-26T15:33:49.706Z,101767.41
2023-01-26T15:36:27.992Z,101767.13
2023-01-26T15:39:00.752Z,101762.81
2023-01-26T15:41:28.116Z,101770.50
2023-01-26T15:43:54.532Z,101774.63
2023-01-26T15:46:20.995Z,101770.84
2023-01-26T15:48:48.454Z,101767.19
2023-01-26T15:51:15.500Z,101765.97
2023-01-26T15:53:42.069Z,101768.25
2023-01-26T15:56:13.457Z,101777.56
2023-01-26T15:58:40.324Z,101778.03
2023-01-26T16:01:08.053Z,101776.44
2023-01-26T16:03:34.463Z,101778.41
2023-01-26T16:06:00.931Z,101772.44
2023-01-26T16:08:27.351Z,101766.16
2023-01-26T16:10:56.705Z,101770.56
2023-01-26T16:13:23.178Z,101776.16
2023-01-26T16:15:52.549Z,101772.81
2023-01-26T16:18:20.035Z,101776.44
2023-01-26T16:20:48.400Z,101782.97
2023-01-26T16:23:21.040Z,101787.19
2023-01-26T16:25:48.800Z,101776.34
2023-01-26T16:28:15.512Z,101796.06
2023-01-26T16:30:42.747Z,101786.88
2023-01-26T16:33:12.525Z,101790.84
2023-01-26T16:35:38.998Z,101774.78
2023-01-26T16:38:07.268Z,101785.13
2023-01-26T16:40:34.010Z,101783.81
2023-01-26T16:43:01.654Z,101782.38
2023-01-26T16:45:28.161Z,101780.72
2023-01-26T16:47:56.393Z,101776.00
2023-01-26T16:50:24.112Z,101772.53
2023-01-26T16:52:51.134Z,101773.38
2023-01-26T16:55:18.612Z,101760.28
2023-01-26T16:57:46.703Z,101772.13
2023-01-26T17:00:16.465Z,101769.84
2023-01-26T17:02:44.488Z,101773.38
2023-01-26T17:05:15.577Z,101767.75
2023-01-26T17:07:41.927Z,101763.88
2023-01-26T17:10:09.706Z,101762.34
2023-01-26T17:12:36.139Z,101769.31
2023-01-26T17:15:05.175Z,101762.56
2023-01-26T17:17:31.606Z,101762.28
2023-01-26T17:20:16.663Z,101763.03
2023-01-26T17:22:44.599Z,101759.53
2023-01-26T17:25:11.658Z,101758.19
2023-01-26T17:27:39.133Z,101766.56
2023-01-26T17:30:06.014Z,101758.03
2023-01-26T17:32:32.700Z,101767.53
2023-01-26T17:34:59.095Z,101764.78
2023-01-26T17:37:29.245Z,101764.38
2023-01-26T17:43:46.147Z,101764.50
2023-01-26T17:46:14.986Z,101775.41
2023-01-26T17:48:44.180Z,101777.88
2023-01-26T17:51:17.642Z,101772.88
2023-01-26T17:53:46.334Z,101786.78
2023-01-26T17:56:16.287Z,101781.56
2023-01-26T17:58:43.101Z,101787.25
2023-01-26T18:01:10.135Z,101789.53
2023-01-26T18:03:40.730Z,101791.81
2023-01-26T18:06:07.409Z,101788.09
2023-01-26T18:08:33.825Z,101795.41
2023-01-26T18:11:02.196Z,101796.25
2023-01-26T18:13:29.455Z,101798.25
2023-01-26T18:15:55.966Z,101789.44
2023-01-26T18:18:24.001Z,101793.69
2023-01-26T18:20:50.729Z,101794.16
2023-01-26T18:23:17.466Z,101798.16
2023-01-26T18:25:44.480Z,101791.88
2023-01-26T18:28:11.681Z,101793.59
2023-01-26T18:30:38.561Z,101794.72
2023-01-26T18:33:05.678Z,101792.81
2023-01-26T18:35:34.114Z,101790.28
2023-01-26T18:38:01.278Z,101791.69
2023-01-26T18:40:27.733Z,101791.97
2023-01-26T18:42:55.418Z,101798.03
2023-01-26T18:45:22.715Z,101797.97
2023-01-26T18:47:50.118Z,101798.03
2023-01-26T18:50:17.376Z,101800.34
2023-01-26T18:52:43.853Z,101796.25
2023-01-26T18:55:11.301Z,101797.50
2023-01-26T18:57:38.035Z,101795.97
2023-01-26T19:00:06.225Z,101802.59
2023-01-26T19:02:33.727Z,101804.59
2023-01-26T19:05:00.397Z,101805.91
2023-01-26T19:07:26.840Z,101805.91
2023-01-26T19:09:53.254Z,101800.09
2023-01-26T19:12:19.636Z,101807.81
2023-01-26T19:14:46.042Z,101804.38
2023-01-26T19:17:12.548Z,101805.72
2023-01-26T19:19:40.962Z,101804.00
2023-01-26T19:22:07.780Z,101806.38
2023-01-26T19:24:34.244Z,101802.13
2023-01-26T19:27:00.692Z,101795.00
2023-01-26T19:29:27.207Z,101798.47
2023-01-26T19:31:53.678Z,101799.84
2023-01-26T19:34:20.130Z,101795.34
2023-01-26T19:36:46.831Z,101797.75
2023-01-26T19:39:13.720Z,101802.84
2023-01-26T19:41:40.280Z,101797.97
2023-01-26T19:44:07.033Z,101793.94
2023-01-26T19:46:33.751Z,101804.94
2023-01-26T19:49:00.442Z,101804.81
2023-01-26T19:51:27.336Z,101799.09
2023-01-26T19:53:55.772Z,101799.91
2023-01-26T19:56:24.823Z,101798.78
2023-01-26T19:58:53.659Z,101802.47
2023-01-26T20:01:21.052Z,101805.69
2023-01-26T20:03:52.509Z,101799.44
2023-01-26T20:06:21.365Z,101802.47
2023-01-26T20:08:48.188Z,101801.00
2023-01-26T20:11:14.859Z,101800.50
2023-01-26T20:13:41.513Z,101789.59
2023-01-26T20:16:08.231Z,101798.66
2023-01-26T20:18:36.591Z,101795.63
2023-01-26T20:21:03.522Z,101801.00
2023-01-26T20:23:30.041Z,101793.94
2023-01-26T20:26:08.830Z,101811.31
2023-01-26T20:28:36.026Z,101812.63
2023-01-26T20:31:15.592Z,101813.88
2023-01-26T20:33:43.820Z,101817.28
2023-01-26T20:36:16.582Z,101810.72
2023-01-26T20:38:43.825Z,101806.25
2023-01-26T20:41:13.471Z,101811.31
2023-01-26T20:43:49.473Z,101811.00
2023-01-26T20:46:23.727Z,101812.63
2023-01-26T20:48:50.846Z,101817.09
2023-01-26T20:51:23.450Z,101814.91
2023-01-26T20:53:51.022Z,101809.66
2023-01-26T20:56:20.362Z,101812.25
2023-01-26T20:58:47.159Z,101817.75
2023-01-26T21:01:16.411Z,101807.13
2023-01-26T21:03:43.611Z,101809.88
2023-01-26T21:06:12.387Z,101809.28
2023-01-26T21:08:39.778Z,101806.34
2023-01-26T21:11:08.429Z,101808.53
2023-01-26T21:13:35.459Z,101805.09
2023-01-26T21:16:02.539Z,101811.00
2023-01-26T21:18:28.950Z,101808.53
2023-01-26T21:21:05.884Z,101806.41
2023-01-26T21:23:34.461Z,101805.56
2023-01-26T21:26:03.316Z,101808.97
2023-01-26T21:28:30.651Z,101804.31
2023-01-26T21:31:11.546Z,101800.72
2023-01-26T21:33:40.426Z,101806.75
2023-01-26T21:36:08.253Z,101804.59
2023-01-26T21:38:37.104Z,101807.34
2023-01-26T21:41:26.541Z,101800.09
2023-01-26T21:44:13.784Z,101796.97
2023-01-26T21:46:40.717Z,101799.91
2023-01-26T21:49:09.345Z,101796.72
2023-01-26T21:51:55.016Z,101804.31
2023-01-26T21:54:21.819Z,101800.75
2023-01-26T21:56:48.294Z,101800.09
2023-01-26T21:59:16.406Z,101808.38
2023-01-26T22:01:46.983Z,101810.75
2023-01-26T22:04:16.602Z,101811.59
2023-01-26T22:06:43.462Z,101822.13
2023-01-26T22:09:12.667Z,101816.41
2023-01-26T22:11:39.654Z,101815.50
2023-01-26T22:14:07.301Z,101814.53
2023-01-26T22:16:33.779Z,101811.38
2023-01-26T22:19:00.275Z,101817.97
2023-01-26T22:21:26.696Z,101815.34
2023-01-26T22:23:54.935Z,101815.16
2023-01-26T22:26:22.701Z,101816.19
2023-01-26T22:28:53.975Z,101811.22
2023-01-26T22:31:26.959Z,101817.97
2023-01-26T22:33:54.713Z,101821.78
2023-01-26T22:36:22.244Z,101810.09
2023-01-26T22:38:49.454Z,101806.28
2023-01-26T22:41:21.489Z,101805.59
2023-01-26T22:43:49.205Z,101802.41
2023-01-26T22:46:17.489Z,101805.47
2023-01-26T22:48:44.074Z,101807.25
2023-01-26T22:51:21.815Z,101804.44
2023-01-26T22:53:49.770Z,101807.66
2023-01-26T22:56:16.696Z,101805.97
2023-01-26T22:58:56.976Z,101796.63
2023-01-26T23:01:24.740Z,101799.38
2023-01-26T23:03:53.106Z,101800.50
2023-01-26T23:06:20.145Z,101800.22
2023-01-26T23:08:46.554Z,101800.63
2023-01-26T23:11:16.335Z,101800.19
2023-01-26T23:13:44.581Z,101795.53
2023-01-26T23:16:12.160Z,101803.13
2023-01-26T23:18:38.692Z,101798.69
2023-01-26T23:21:06.180Z,101797.47
2023-01-26T23:23:32.658Z,101805.31
2023-01-26T23:25:59.971Z,101801.28
2023-01-26T23:28:32.088Z,101807.56
2023-01-26T23:30:59.512Z,101805.09
2023-01-26T23:33:28.700Z,101814.03
2023-01-26T23:35:55.121Z,101811.25
2023-01-26T23:38:23.454Z,101804.44
2023-01-26T23:40:50.587Z,101811.47
2023-01-26T23:43:17.900Z,101811.41
2023-01-26T23:45:46.134Z,101808.31
2023-01-26T23:48:13.064Z,101805.97
2023-01-26T23:50:40.043Z,101799.97
2023-01-26T23:53:06.842Z,101800.63
2023-01-26T23:55:33.293Z,101797.06
2023-01-26T23:57:59.896Z,101801.34
